Ana Sayfa
METAR-TAF:

METAR-TAF

Havaalanları :

Eskişehir Hava Üssü

Eskişehir, Türkiye

Enlem: 39-47N, Boylam: 030-34E, yükseklik: 785 m

Güncel hava durumu gözlemi

Rapor saat 01:09 UTC de 14 saat ve 29 dakika önce yapıldı.
Sakin rüzgar
Sıcaklık 15°C
Nem 94%
Basınç 1011 hPa
Görüş mesafesi 10 km veya daha fazla
3000 ft yükseklikte parçalı bulutlu
10000 ft yükseklikte parçalı çok bulutlu
hafif sağanak yağmurlar

METAR: LTBI 260109Z 00000KT 9999 -SHRA SCT030 BKN100 15/14 Q1011 NOSIG RMK RWY09 25005KT

Saat: 18:38 (15:38 UTC)


TAF: eksik

4.000'den fazla havaalanı için hava durumu gözlemleri ve tahminleri (METAR ve TAF raporları).

Kullanılabilir istasyonlar harita üzerinde sarı ve kırmızı noktalarla gösterilir.

İstasyonun adını görmek için fareyi noktanın üzerinde gezdirin.

Sonrasında hava gözlem ve tahminlerini görmek için tıklayın.

Haritayı değiştirmek için: yaklaştırmak için siyah artı işaretli yeşil düğmeye ve uzaklaştırmak için de eksi işaretli düğmeye hızla tıklayın; bitişik haritalar için yeşil okları kullanın.


METAR-TAF: